createdAt,value
2019-04-22T00:01:16.150Z,100660.92
2019-04-22T00:03:47.484Z,100661.42
2019-04-22T00:06:34.141Z,100657.57
2019-04-22T00:09:11.041Z,100642.34
2019-04-22T00:11:58.883Z,100653.98
2019-04-22T00:14:07.804Z,100653.92
2019-04-22T00:16:46.914Z,100653.42
2019-04-22T00:19:23.981Z,100645.45
2019-04-22T00:21:47.652Z,100645.30
2019-04-22T00:24:12.116Z,100638.66
2019-04-22T00:26:49.968Z,100633.78
2019-04-22T00:29:39.456Z,100635.41
2019-04-22T00:32:05.511Z,100631.84
2019-04-22T00:34:42.353Z,100629.18
2019-04-22T00:37:17.201Z,100628.98
2019-04-22T00:39:46.341Z,100626.06
2019-04-22T00:42:21.395Z,100617.91
2019-04-22T00:44:51.790Z,100624.63
2019-04-22T00:47:27.997Z,100619.13
2019-04-22T00:50:12.403Z,100624.08
2019-04-22T00:52:26.481Z,100616.62
2019-04-22T00:55:04.164Z,100615.45
2019-04-22T00:57:30.821Z,100608.73
2019-04-22T00:59:57.277Z,100612.03
2019-04-22T01:02:34.623Z,100613.16
2019-04-22T01:05:00.721Z,100602.56
2019-04-22T01:07:31.665Z,100602.92
2019-04-22T01:10:07.801Z,100602.38
2019-04-22T01:12:34.620Z,100597.04
2019-04-22T01:15:10.664Z,100594.38
2019-04-22T01:17:43.516Z,100593.86
2019-04-22T01:20:24.519Z,100588.66
2019-04-22T01:22:34.207Z,100581.09
2019-04-22T01:25:08.014Z,100583.28
2019-04-22T01:27:34.555Z,100588.15
2019-04-22T01:30:06.649Z,100583.00
2019-04-22T01:32:27.315Z,100586.11
2019-04-22T01:35:05.945Z,100580.44
2019-04-22T01:37:40.665Z,100579.59
2019-04-22T01:40:24.063Z,100578.39
2019-04-22T01:42:55.797Z,100575.28
2019-04-22T01:45:29.529Z,100568.30
2019-04-22T01:50:27.765Z,100559.49
2019-04-22T01:52:59.160Z,100559.97
2019-04-22T01:57:54.819Z,100558.22
2019-04-22T02:00:32.606Z,100549.92
2019-04-22T02:03:07.133Z,100555.14
2019-04-22T02:05:31.434Z,100557.38
2019-04-22T02:08:08.332Z,100553.02
2019-04-22T02:10:42.148Z,100554.34
2019-04-22T02:13:10.774Z,100545.13
2019-04-22T02:15:39.656Z,100544.57
2019-04-22T02:18:18.112Z,100547.61
2019-04-22T02:20:43.033Z,100540.03
2019-04-22T02:28:40.085Z,100542.23
2019-04-22T02:34:01.815Z,100533.97
2019-04-22T02:38:57.446Z,100528.78
2019-04-22T02:43:56.910Z,100525.06
2019-04-22T02:54:17.295Z,100513.38
2019-04-22T03:01:27.530Z,100513.45
2019-04-22T03:04:01.664Z,100515.83
2019-04-22T03:06:31.853Z,100506.41
2019-04-22T03:11:25.359Z,100506.25
2019-04-22T03:14:45.969Z,100500.63
2019-04-22T03:21:23.861Z,100487.43
2019-04-22T03:24:15.728Z,100483.59
2019-04-22T03:28:57.025Z,100468.24
2019-04-22T03:37:17.408Z,100468.24
2019-04-22T03:39:45.681Z,100471.78
2019-04-22T03:44:31.023Z,100462.32
2019-04-22T03:47:01.848Z,100459.83
2019-04-22T03:52:04.994Z,100453.91
2019-04-22T03:54:39.150Z,100453.87
2019-04-22T03:59:31.818Z,100450.17
2019-04-22T04:02:01.891Z,100451.15
2019-04-22T04:04:33.382Z,100445.09
2019-04-22T04:17:11.479Z,100435.96
2019-04-22T04:19:46.021Z,100445.66
2019-04-22T04:22:21.349Z,100445.66
2019-04-22T04:27:42.687Z,100439.94
2019-04-22T04:35:05.352Z,100435.42
2019-04-22T04:39:53.307Z,100430.10
2019-04-22T04:47:35.363Z,100430.37
2019-04-22T04:53:00.215Z,100430.37
2019-04-22T04:54:59.413Z,100435.05
2019-04-22T04:57:33.776Z,100428.05
2019-04-22T05:02:40.966Z,100432.72
2019-04-22T05:05:06.528Z,100435.75
2019-04-22T05:07:38.385Z,100431.30
2019-04-22T05:15:03.970Z,100434.46
2019-04-22T05:17:35.200Z,100441.30
2019-04-22T05:20:05.338Z,100427.88
2019-04-22T05:22:34.055Z,100422.77
2019-04-22T05:25:06.608Z,100420.83
2019-04-22T05:27:39.766Z,100430.79
2019-04-22T05:32:37.068Z,100418.41
2019-04-22T05:35:10.248Z,100423.48
2019-04-22T05:40:17.688Z,100417.89
2019-04-22T05:42:39.555Z,100416.00
2019-04-22T05:47:42.879Z,100414.79
2019-04-22T05:50:13.046Z,100419.51
2019-04-22T05:52:51.355Z,100416.13
2019-04-22T05:55:26.819Z,100411.73
2019-04-22T05:57:59.132Z,100408.80
2019-04-22T06:00:36.910Z,100409.02
2019-04-22T06:03:09.956Z,100404.03
2019-04-22T06:05:31.910Z,100409.52
2019-04-22T06:08:00.080Z,100408.47
2019-04-22T06:10:39.920Z,100409.34
2019-04-22T06:13:01.053Z,100412.42
2019-04-22T06:15:54.329Z,100407.28
2019-04-22T06:18:15.994Z,100406.41
2019-04-22T06:20:57.502Z,100407.09
2019-04-22T06:23:18.635Z,100405.25
2019-04-22T06:26:10.114Z,100407.91
2019-04-22T06:28:29.013Z,100408.24
2019-04-22T06:30:57.101Z,100407.98
2019-04-22T06:36:08.076Z,100411.48
2019-04-22T06:41:07.201Z,100399.37
2019-04-22T06:43:38.510Z,100399.20
2019-04-22T06:46:02.157Z,100403.44
2019-04-22T06:48:31.684Z,100401.20
2019-04-22T06:51:05.157Z,100398.31
2019-04-22T06:53:37.312Z,100396.14
2019-04-22T06:55:59.677Z,100402.39
2019-04-22T06:58:34.996Z,100399.90
2019-04-22T07:01:09.878Z,100392.84
2019-04-22T07:03:41.670Z,100395.02
2019-04-22T07:06:09.508Z,100386.13
2019-04-22T07:11:02.757Z,100380.91
2019-04-22T07:13:43.473Z,100390.32
2019-04-22T07:16:11.551Z,100382.05
2019-04-22T07:18:42.991Z,100381.55
2019-04-22T07:21:12.698Z,100379.80
2019-04-22T07:23:51.245Z,100380.15
2019-04-22T07:26:18.953Z,100383.96
2019-04-22T07:28:43.817Z,100382.45
2019-04-22T07:31:18.983Z,100376.09
2019-04-22T07:34:08.067Z,100371.11
2019-04-22T07:36:41.971Z,100370.27
2019-04-22T07:38:48.650Z,100371.19
2019-04-22T07:41:24.624Z,100364.48
2019-04-22T07:46:28.693Z,100367.61
2019-04-22T07:48:59.700Z,100361.31
2019-04-22T07:51:28.229Z,100365.91
2019-04-22T07:54:01.283Z,100358.61
2019-04-22T07:56:29.269Z,100353.73
2019-04-22T07:59:07.594Z,100360.08
2019-04-22T08:01:30.540Z,100355.44
2019-04-22T08:06:43.748Z,100351.98
2019-04-22T08:09:07.609Z,100350.51
2019-04-22T08:14:07.215Z,100348.59
2019-04-22T08:16:43.945Z,100342.69
2019-04-22T08:19:16.982Z,100342.47
2019-04-22T08:21:49.417Z,100340.61
2019-04-22T08:24:29.244Z,100338.33
2019-04-22T08:26:51.960Z,100341.02
2019-04-22T08:29:20.355Z,100338.72
2019-04-22T08:31:48.589Z,100337.16
2019-04-22T08:34:19.519Z,100337.27
2019-04-22T08:37:14.615Z,100333.33
2019-04-22T08:39:19.895Z,100327.30
2019-04-22T08:41:46.090Z,100324.53
2019-04-22T08:44:49.668Z,100333.70
2019-04-22T08:46:57.731Z,100325.21
2019-04-22T08:49:23.173Z,100320.27
2019-04-22T08:51:58.498Z,100322.08
2019-04-22T08:54:24.512Z,100307.19
2019-04-22T08:56:58.252Z,100303.80
2019-04-22T08:59:43.575Z,100305.70
2019-04-22T09:01:59.688Z,100299.25
2019-04-22T09:04:30.594Z,100301.82
2019-04-22T09:09:31.454Z,100292.62
2019-04-22T09:12:07.627Z,100286.23
2019-04-22T09:14:39.235Z,100285.38
2019-04-22T09:17:13.648Z,100277.60
2019-04-22T09:19:39.019Z,100278.25
2019-04-22T09:22:13.655Z,100271.44
2019-04-22T09:24:40.827Z,100274.48
2019-04-22T09:27:23.349Z,100264.23
2019-04-22T09:29:42.859Z,100262.33
2019-04-22T09:34:47.306Z,100257.31
2019-04-22T09:37:23.675Z,100259.41
2019-04-22T09:39:50.808Z,100253.27
2019-04-22T09:42:18.238Z,100251.11
2019-04-22T09:44:55.528Z,100243.91
2019-04-22T09:47:19.199Z,100236.28
2019-04-22T09:49:58.124Z,100228.48
2019-04-22T09:52:26.254Z,100219.89
2019-04-22T09:55:01.184Z,100220.86
2019-04-22T09:57:24.902Z,100205.95
2019-04-22T10:05:00.216Z,100197.28
2019-04-22T10:12:36.532Z,100178.44
2019-04-22T10:15:00.170Z,100173.14
2019-04-22T10:17:32.206Z,100178.07
2019-04-22T10:20:05.608Z,100170.23
2019-04-22T10:22:43.670Z,100172.01
2019-04-22T10:25:10.447Z,100161.48
2019-04-22T10:27:39.798Z,100164.61
2019-04-22T10:30:08.935Z,100159.14
2019-04-22T10:32:44.605Z,100147.62
2019-04-22T10:35:11.068Z,100155.70
2019-04-22T10:37:38.635Z,100155.86
2019-04-22T10:40:16.329Z,100152.35
2019-04-22T10:42:47.382Z,100154.19
2019-04-22T10:45:16.763Z,100145.62
2019-04-22T10:47:46.133Z,100132.41
2019-04-22T10:50:16.579Z,100134.81
2019-04-22T10:52:46.015Z,100128.86
2019-04-22T10:55:17.145Z,100119.53
2019-04-22T10:57:46.668Z,100110.34
2019-04-22T11:00:17.669Z,100115.89
2019-04-22T11:02:47.820Z,100111.56
2019-04-22T11:05:17.349Z,100109.55
2019-04-22T11:07:53.781Z,100108.52
2019-04-22T11:10:35.487Z,100095.56
2019-04-22T11:12:49.406Z,100094.14
2019-04-22T11:15:19.172Z,100092.45
2019-04-22T11:17:49.529Z,100077.55
2019-04-22T11:20:19.970Z,100082.25
2019-04-22T11:22:50.944Z,100094.06
2019-04-22T11:25:21.659Z,100073.92
2019-04-22T11:27:51.458Z,100071.16
2019-04-22T11:30:24.680Z,100089.31
2019-04-22T11:32:54.238Z,100064.89
2019-04-22T11:35:23.894Z,100059.80
2019-04-22T11:37:53.198Z,100056.50
2019-04-22T11:40:28.793Z,100055.28
2019-04-22T11:42:54.401Z,100048.27
2019-04-22T11:45:24.139Z,100055.58
2019-04-22T11:47:53.516Z,100045.70
2019-04-22T11:50:24.205Z,100035.97
2019-04-22T11:52:55.013Z,100051.05
2019-04-22T11:55:24.774Z,100041.13
2019-04-22T11:57:54.271Z,100043.80
2019-04-22T12:00:27.039Z,100036.84
2019-04-22T12:02:56.770Z,100038.65
2019-04-22T12:05:26.236Z,100038.69
2019-04-22T12:07:57.216Z,100034.82
2019-04-22T12:10:34.656Z,100047.31
2019-04-22T12:12:57.870Z,100027.63
2019-04-22T12:15:28.808Z,100018.99
2019-04-22T12:17:59.322Z,100023.28
2019-04-22T12:20:29.408Z,100010.44
2019-04-22T12:22:59.048Z,100019.05
2019-04-22T12:25:41.939Z,100006.42
2019-04-22T12:28:01.121Z,100004.19
2019-04-22T12:30:30.665Z,100005.49
2019-04-22T12:33:00.196Z,100016.31
2019-04-22T12:35:30.382Z,100002.58
2019-04-22T12:38:06.123Z,99993.72
2019-04-22T12:40:40.882Z,99996.59
2019-04-22T12:43:04.733Z,99986.28
2019-04-22T12:45:34.196Z,99982.27
2019-04-22T12:48:04.274Z,99974.71
2019-04-22T12:50:38.443Z,99968.61
2019-04-22T12:53:10.917Z,99966.29
2019-04-22T12:55:37.649Z,99972.47
2019-04-22T12:58:07.620Z,99964.72
2019-04-22T13:00:38.349Z,99960.70
2019-04-22T13:03:07.686Z,99957.39
2019-04-22T13:05:37.564Z,99954.68
2019-04-22T13:08:07.896Z,99945.94
2019-04-22T13:10:45.665Z,99938.66
2019-04-22T13:13:09.203Z,99935.39
2019-04-22T13:15:39.195Z,99933.89
2019-04-22T13:18:17.020Z,99924.87
2019-04-22T13:20:39.747Z,99923.19
2019-04-22T13:23:09.486Z,99917.13
2019-04-22T13:25:39.072Z,99906.06
2019-04-22T13:28:09.366Z,99922.00
2019-04-22T13:30:38.821Z,99910.20
2019-04-22T13:33:08.168Z,99896.45
2019-04-22T13:35:39.439Z,99899.84
2019-04-22T13:38:09.125Z,99909.95
2019-04-22T13:40:40.493Z,99901.30
2019-04-22T13:43:11.019Z,99890.94
2019-04-22T13:45:40.852Z,99897.75
2019-04-22T13:48:29.739Z,99886.45
2019-04-22T13:51:13.224Z,99880.91
2019-04-22T13:56:03.799Z,99872.30
2019-04-22T13:58:29.070Z,99865.59
2019-04-22T14:00:46.810Z,99861.58
2019-04-22T14:03:35.780Z,99853.40
2019-04-22T14:06:06.912Z,99851.66
2019-04-22T14:08:37.585Z,99846.27
2019-04-22T14:11:16.813Z,99851.42
2019-04-22T14:13:39.403Z,99843.98
2019-04-22T14:16:09.192Z,99834.77
2019-04-22T14:18:39.016Z,99822.84
2019-04-22T14:21:09.097Z,99812.77
2019-04-22T14:23:38.614Z,99823.13
2019-04-22T14:26:09.193Z,99822.38
2019-04-22T14:28:39.510Z,99819.89
2019-04-22T14:31:09.018Z,99805.80
2019-04-22T14:33:41.620Z,99802.30
2019-04-22T14:36:11.673Z,99805.96
2019-04-22T14:38:41.835Z,99788.05
2019-04-22T14:41:30.513Z,99788.69
2019-04-22T14:44:49.645Z,99782.70
2019-04-22T14:46:45.533Z,99782.22
2019-04-22T14:49:02.814Z,99780.02
2019-04-22T14:51:31.878Z,99773.56
2019-04-22T14:54:05.381Z,99770.88
2019-04-22T14:56:18.152Z,99766.36
2019-04-22T14:58:48.955Z,99765.76
2019-04-22T15:01:19.082Z,99763.08
2019-04-22T15:03:48.452Z,99762.73
2019-04-22T15:06:18.160Z,99765.53
2019-04-22T15:08:48.908Z,99758.48
2019-04-22T15:11:19.285Z,99762.78
2019-04-22T15:13:49.576Z,99746.21
2019-04-22T15:16:36.514Z,99738.31
2019-04-22T15:19:11.627Z,99741.14
2019-04-22T15:21:41.070Z,99736.62
2019-04-22T15:24:27.202Z,99737.36
2019-04-22T15:26:58.604Z,99731.14
2019-04-22T15:29:29.677Z,99735.16
2019-04-22T15:31:59.946Z,99728.11
2019-04-22T15:34:30.649Z,99728.59
2019-04-22T15:37:00.228Z,99727.06
2019-04-22T15:39:31.456Z,99719.66
2019-04-22T15:42:11.510Z,99723.30
2019-04-22T15:44:31.882Z,99708.58
2019-04-22T15:47:02.680Z,99711.63
2019-04-22T15:49:34.038Z,99709.31
2019-04-22T15:52:04.639Z,99709.86
2019-04-22T15:54:34.549Z,99713.87
2019-04-22T15:57:04.738Z,99705.65
2019-04-22T15:59:49.056Z,99707.39
2019-04-22T16:02:08.100Z,99696.11
2019-04-22T16:04:38.718Z,99699.42
2019-04-22T16:07:08.651Z,99704.90
2019-04-22T16:09:39.457Z,99695.18
2019-04-22T16:12:16.341Z,99698.37
2019-04-22T16:14:46.918Z,99692.62
2019-04-22T16:17:10.967Z,99693.59
2019-04-22T16:19:41.179Z,99683.16
2019-04-22T16:22:16.899Z,99683.80
2019-04-22T16:24:56.252Z,99690.61
2019-04-22T16:27:27.405Z,99673.50
2019-04-22T16:29:57.178Z,99679.96
2019-04-22T16:32:27.809Z,99671.39
2019-04-22T16:34:58.879Z,99673.33
2019-04-22T16:37:28.579Z,99669.95
2019-04-22T16:39:58.919Z,99668.42
2019-04-22T16:42:38.076Z,99660.29
2019-04-22T16:44:59.712Z,99662.61
2019-04-22T16:47:29.020Z,99654.23
2019-04-22T16:49:59.658Z,99654.36
2019-04-22T16:52:30.268Z,99651.49
2019-04-22T16:55:00.992Z,99655.27
2019-04-22T16:57:31.435Z,99644.70
2019-04-22T17:00:00.776Z,99653.86
2019-04-22T17:02:49.830Z,99653.28
2019-04-22T17:05:27.320Z,99651.36
2019-04-22T17:07:56.654Z,99651.13
2019-04-22T17:10:26.231Z,99648.73
2019-04-22T17:13:02.379Z,99651.81
2019-04-22T17:15:27.039Z,99642.73
2019-04-22T17:17:57.135Z,99646.66
2019-04-22T17:20:27.123Z,99644.83
2019-04-22T17:22:57.778Z,99646.92
2019-04-22T17:25:28.227Z,99645.98
2019-04-22T17:27:57.610Z,99639.73
2019-04-22T17:30:29.154Z,99644.48
2019-04-22T17:32:58.848Z,99640.88
2019-04-22T17:35:28.397Z,99635.06
2019-04-22T17:38:08.770Z,99640.20
2019-04-22T17:40:45.716Z,99638.28
2019-04-22T17:43:29.912Z,99635.37
2019-04-22T17:45:56.040Z,99636.63
2019-04-22T17:48:47.037Z,99640.16
2019-04-22T17:51:29.968Z,99638.50
2019-04-22T17:53:54.981Z,99646.08
2019-04-22T17:56:20.577Z,99634.56
2019-04-22T17:58:55.449Z,99634.13
2019-04-22T18:01:40.214Z,99639.10
2019-04-22T18:03:42.349Z,99639.25
2019-04-22T18:06:25.974Z,99642.09
2019-04-22T18:08:56.420Z,99640.89
2019-04-22T18:11:33.394Z,99637.89
2019-04-22T18:14:16.895Z,99643.02
2019-04-22T18:16:37.260Z,99646.67
2019-04-22T18:19:04.509Z,99652.29
2019-04-22T18:21:30.320Z,99650.61
2019-04-22T18:24:00.087Z,99645.05
2019-04-22T18:26:38.428Z,99651.33
2019-04-22T18:29:11.240Z,99648.47
2019-04-22T18:31:31.638Z,99651.14
2019-04-22T18:34:08.346Z,99655.73
2019-04-22T18:36:37.632Z,99656.23
2019-04-22T18:39:21.221Z,99663.02
2019-04-22T18:41:44.012Z,99658.44
2019-04-22T18:44:19.964Z,99666.19
2019-04-22T18:46:50.931Z,99661.57
2019-04-22T18:49:16.535Z,99670.28
2019-04-22T18:52:08.569Z,99662.60
2019-04-22T18:54:51.912Z,99665.39
2019-04-22T18:57:15.189Z,99674.20
2019-04-22T18:59:36.151Z,99671.72
2019-04-22T19:02:07.776Z,99673.14
2019-04-22T19:04:50.475Z,99675.46
2019-04-22T19:07:35.116Z,99676.38
2019-04-22T19:10:06.326Z,99680.31
2019-04-22T19:12:33.752Z,99678.09
2019-04-22T19:15:03.492Z,99676.20
2019-04-22T19:17:43.907Z,99681.34
2019-04-22T19:20:08.279Z,99677.91
2019-04-22T19:22:36.499Z,99685.21
2019-04-22T19:25:02.713Z,99683.77
2019-04-22T19:27:42.254Z,99683.45
2019-04-22T19:30:14.102Z,99682.80
2019-04-22T19:32:41.933Z,99688.38
2019-04-22T19:35:07.170Z,99690.25
2019-04-22T19:37:36.690Z,99688.10
2019-04-22T19:40:34.200Z,99696.14
2019-04-22T19:45:13.316Z,99696.43
2019-04-22T19:47:50.441Z,99699.25
2019-04-22T19:50:16.120Z,99698.04
2019-04-22T19:52:44.678Z,99699.61
2019-04-22T19:55:19.530Z,99702.99
2019-04-22T19:57:52.495Z,99698.75
2019-04-22T20:00:18.445Z,99701.08
2019-04-22T20:02:51.430Z,99700.45
2019-04-22T20:05:33.658Z,99700.95
2019-04-22T20:07:57.725Z,99700.59
2019-04-22T20:10:29.621Z,99704.70
2019-04-22T20:13:07.623Z,99695.89
2019-04-22T20:15:29.246Z,99696.84
2019-04-22T20:18:22.594Z,99699.98
2019-04-22T20:20:42.192Z,99699.64
2019-04-22T20:23:06.689Z,99700.88
2019-04-22T20:25:34.795Z,99702.13
2019-04-22T20:28:12.786Z,99700.21
2019-04-22T20:30:39.841Z,99703.15
2019-04-22T20:33:08.482Z,99704.21
2019-04-22T20:35:43.957Z,99706.08
2019-04-22T20:38:13.550Z,99709.22
2019-04-22T20:40:42.524Z,99696.81
2019-04-22T20:43:23.500Z,99697.38
2019-04-22T20:45:49.494Z,99700.69
2019-04-22T20:48:09.301Z,99697.49
2019-04-22T20:50:52.925Z,99698.73
2019-04-22T20:53:25.824Z,99695.97
2019-04-22T20:55:52.453Z,99696.64
2019-04-22T20:58:28.333Z,99699.00
2019-04-22T21:00:46.340Z,99702.97
2019-04-22T21:03:18.354Z,99701.73
2019-04-22T21:05:49.244Z,99708.09
2019-04-22T21:08:33.414Z,99708.45
2019-04-22T21:10:55.361Z,99706.47
2019-04-22T21:13:24.457Z,99718.20
2019-04-22T21:16:04.340Z,99718.48
2019-04-22T21:18:30.684Z,99707.70
2019-04-22T21:21:07.193Z,99706.29
2019-04-22T21:23:26.482Z,99710.42
2019-04-22T21:26:11.218Z,99707.13
2019-04-22T21:28:41.843Z,99704.35
2019-04-22T21:31:14.847Z,99698.02
2019-04-22T21:33:44.673Z,99695.34
2019-04-22T21:36:22.156Z,99696.86
2019-04-22T21:38:43.544Z,99695.89
2019-04-22T21:41:09.966Z,99690.91
2019-04-22T21:43:50.283Z,99691.06
2019-04-22T21:46:19.220Z,99686.91
2019-04-22T21:48:46.343Z,99685.86
2019-04-22T21:51:25.697Z,99690.47
2019-04-22T21:54:00.389Z,99686.69
2019-04-22T21:56:35.064Z,99690.47
2019-04-22T21:58:57.096Z,99692.89
2019-04-22T22:01:49.658Z,99691.00
2019-04-22T22:04:15.265Z,99691.72
2019-04-22T22:06:35.944Z,99696.06
2019-04-22T22:09:15.588Z,99701.16
2019-04-22T22:11:41.510Z,99703.57
2019-04-22T22:14:11.594Z,99691.56
2019-04-22T22:16:38.919Z,99694.08
2019-04-22T22:19:14.477Z,99691.70
2019-04-22T22:21:51.155Z,99690.22
2019-04-22T22:24:22.874Z,99685.30
2019-04-22T22:26:50.392Z,99683.48
2019-04-22T22:29:29.439Z,99681.17
2019-04-22T22:31:55.529Z,99680.10
2019-04-22T22:34:24.527Z,99670.36
2019-04-22T22:36:46.517Z,99670.34
2019-04-22T22:39:19.439Z,99675.11
2019-04-22T22:41:39.558Z,99680.70
2019-04-22T22:44:18.718Z,99674.53
2019-04-22T22:46:55.851Z,99675.34
2019-04-22T22:49:32.959Z,99669.72
2019-04-22T22:54:34.131Z,99659.14
2019-04-22T22:57:15.677Z,99658.20
2019-04-22T22:59:38.369Z,99657.30
2019-04-22T23:02:08.144Z,99653.72
2019-04-22T23:04:39.830Z,99655.83
2019-04-22T23:07:17.261Z,99652.28
2019-04-22T23:09:44.622Z,99650.81
2019-04-22T23:12:27.020Z,99654.07
2019-04-22T23:14:44.088Z,99653.41
2019-04-22T23:17:03.182Z,99651.00
2019-04-22T23:19:26.081Z,99649.92
2019-04-22T23:22:01.145Z,99643.56
2019-04-22T23:25:01.873Z,99640.23
2019-04-22T23:27:49.153Z,99633.97
2019-04-22T23:30:17.054Z,99629.09
2019-04-22T23:32:55.821Z,99621.48
2019-04-22T23:35:35.384Z,99627.47
2019-04-22T23:38:07.832Z,99615.08
2019-04-22T23:40:38.626Z,99613.61
2019-04-22T23:43:15.833Z,99605.06
2019-04-22T23:45:44.882Z,99600.02
2019-04-22T23:48:10.093Z,99602.02
2019-04-22T23:50:45.976Z,99601.77
2019-04-22T23:53:58.069Z,99601.60
2019-04-22T23:56:04.763Z,99608.89
